Terminal Aerodrome Forecast
Issued by NWS

Home | Current Version | Previous Version | Text Only | Print | Product List | Glossary On
Versions: 1 2 3 4 5 6 7 8 9 10 11 12 13 14 15 16 17 18 19 20 21 22 23 24 25 26 27 28 29
000
FTUS45 KPIH 221120
TAFSUN
TAF
KSUN 221120Z 2212/2312 31006KT P6SM SCT025 BKN035
     FM222000 31010KT 5SM -SN SCT013 OVC023
      TEMPO 2221/2223 2SM -SN BR SCT009 OVC013
     FM222300 VRB06KT 1 1/2SM -SN BR SCT005 OVC010
      TEMPO 2300/2303 1/2SM SN FG SCT004 OVC008
     FM230500 31007KT 6SM BR VCSH SCT015 BKN090
      AMD LTD TO CLD VIS AND WIND TIL 221400=

USA.gov is the U.S. government's official web portal to all federal, state and local government web resources and services.